sensor_id;sensor_type;location;lat;lon;timestamp;pressure;altitude;pressure_sealevel;temperature;humidity
46007;BME280;31738;50.188;8.524;2023-05-23T00:00:36;98514.53;;;20.63;74.34
46007;BME280;31738;50.188;8.524;2023-05-23T00:03:02;98513.84;;;20.66;74.26
46007;BME280;31738;50.188;8.524;2023-05-23T00:05:28;98533.34;;;20.68;73.97
46007;BME280;31738;50.188;8.524;2023-05-23T00:07:54;98526.78;;;20.69;74.08
46007;BME280;31738;50.188;8.524;2023-05-23T00:10:20;98533.81;;;20.70;74.36
46007;BME280;31738;50.188;8.524;2023-05-23T00:12:46;98528.81;;;20.72;74.14
46007;BME280;31738;50.188;8.524;2023-05-23T00:15:12;98534.28;;;20.72;73.46
46007;BME280;31738;50.188;8.524;2023-05-23T00:17:38;98530.75;;;20.72;73.87
46007;BME280;31738;50.188;8.524;2023-05-23T00:20:07;98542.88;;;20.74;73.78
46007;BME280;31738;50.188;8.524;2023-05-23T00:22:36;98546.75;;;20.73;73.42
46007;BME280;31738;50.188;8.524;2023-05-23T00:25:10;98562.44;;;20.76;73.30
46007;BME280;31738;50.188;8.524;2023-05-23T00:27:35;98547.66;;;20.77;73.78
46007;BME280;31738;50.188;8.524;2023-05-23T00:30:02;98542.19;;;20.77;73.52
46007;BME280;31738;50.188;8.524;2023-05-23T00:32:28;98555.41;;;20.75;73.63
46007;BME280;31738;50.188;8.524;2023-05-23T00:34:53;98535.41;;;20.71;74.44
46007;BME280;31738;50.188;8.524;2023-05-23T00:37:20;98548.13;;;20.67;74.20
46007;BME280;31738;50.188;8.524;2023-05-23T00:39:47;98555.84;;;20.65;74.28
46007;BME280;31738;50.188;8.524;2023-05-23T00:42:12;98562.44;;;20.64;74.50
46007;BME280;31738;50.188;8.524;2023-05-23T00:44:38;98563.59;;;20.63;74.18
46007;BME280;31738;50.188;8.524;2023-05-23T00:47:05;98555.41;;;20.63;74.69
46007;BME280;31738;50.188;8.524;2023-05-23T00:49:31;98558.03;;;20.60;74.31
46007;BME280;31738;50.188;8.524;2023-05-23T00:51:57;98553.72;;;20.59;74.48
46007;BME280;31738;50.188;8.524;2023-05-23T00:54:25;98559.59;;;20.61;74.46
46007;BME280;31738;50.188;8.524;2023-05-23T00:56:53;98566.56;;;20.58;74.52
46007;BME280;31738;50.188;8.524;2023-05-23T00:59:18;98564.16;;;20.57;74.97
46007;BME280;31738;50.188;8.524;2023-05-23T01:01:47;98569.63;;;20.57;74.62
46007;BME280;31738;50.188;8.524;2023-05-23T01:04:14;98568.81;;;20.56;75.14
46007;BME280;31738;50.188;8.524;2023-05-23T01:06:41;98566.44;;;20.55;75.04
46007;BME280;31738;50.188;8.524;2023-05-23T01:09:17;98571.09;;;20.54;75.74
46007;BME280;31738;50.188;8.524;2023-05-23T01:14:44;98569.97;;;20.43;76.06
46007;BME280;31738;50.188;8.524;2023-05-23T01:17:31;98558.16;;;20.39;76.06
46007;BME280;31738;50.188;8.524;2023-05-23T01:20:10;98551.81;;;20.35;76.07
46007;BME280;31738;50.188;8.524;2023-05-23T01:22:58;98554.53;;;20.35;75.81
46007;BME280;31738;50.188;8.524;2023-05-23T01:25:50;98556.34;;;20.31;76.05
46007;BME280;31738;50.188;8.524;2023-05-23T01:28:26;98563.94;;;20.25;76.53
46007;BME280;31738;50.188;8.524;2023-05-23T01:30:56;98572.13;;;20.25;76.81
46007;BME280;31738;50.188;8.524;2023-05-23T01:33:22;98569.28;;;20.22;76.45
46007;BME280;31738;50.188;8.524;2023-05-23T01:35:49;98559.97;;;20.23;76.25
46007;BME280;31738;50.188;8.524;2023-05-23T01:38:15;98546.38;;;20.23;76.50
46007;BME280;31738;50.188;8.524;2023-05-23T01:40:41;98547.03;;;20.20;76.31
46007;BME280;31738;50.188;8.524;2023-05-23T01:43:08;98554.75;;;20.18;76.12
46007;BME280;31738;50.188;8.524;2023-05-23T01:45:34;98557.56;;;20.09;76.15
46007;BME280;31738;50.188;8.524;2023-05-23T01:48:02;98560.63;;;20.08;75.89
46007;BME280;31738;50.188;8.524;2023-05-23T01:50:29;98564.94;;;20.09;76.39
46007;BME280;31738;50.188;8.524;2023-05-23T01:52:56;98561.75;;;20.07;76.55
46007;BME280;31738;50.188;8.524;2023-05-23T01:55:22;98569.47;;;20.05;76.50
46007;BME280;31738;50.188;8.524;2023-05-23T01:57:51;98578.75;;;20.04;76.42
46007;BME280;31738;50.188;8.524;2023-05-23T02:00:18;98585.69;;;20.01;76.43
46007;BME280;31738;50.188;8.524;2023-05-23T02:02:45;98580.94;;;19.98;76.46
46007;BME280;31738;50.188;8.524;2023-05-23T02:05:11;98587.81;;;19.96;76.73
46007;BME280;31738;50.188;8.524;2023-05-23T02:07:37;98584.66;;;19.94;76.67
46007;BME280;31738;50.188;8.524;2023-05-23T02:10:06;98590.78;;;19.91;76.73
46007;BME280;31738;50.188;8.524;2023-05-23T02:12:32;98586.00;;;19.88;76.54
46007;BME280;31738;50.188;8.524;2023-05-23T02:14:57;98593.25;;;19.84;75.87
46007;BME280;31738;50.188;8.524;2023-05-23T02:17:23;98597.31;;;19.78;75.91
46007;BME280;31738;50.188;8.524;2023-05-23T02:19:48;98599.47;;;19.72;75.86
46007;BME280;31738;50.188;8.524;2023-05-23T02:22:14;98598.88;;;19.67;75.91
46007;BME280;31738;50.188;8.524;2023-05-23T02:24:40;98614.28;;;19.63;75.27
46007;BME280;31738;50.188;8.524;2023-05-23T02:27:05;98614.50;;;19.58;75.44
46007;BME280;31738;50.188;8.524;2023-05-23T02:29:31;98613.09;;;19.52;74.56
46007;BME280;31738;50.188;8.524;2023-05-23T02:31:57;98617.84;;;19.43;74.22
46007;BME280;31738;50.188;8.524;2023-05-23T02:34:22;98626.53;;;19.36;73.99
46007;BME280;31738;50.188;8.524;2023-05-23T02:36:48;98631.06;;;19.32;73.80
46007;BME280;31738;50.188;8.524;2023-05-23T02:39:13;98626.59;;;19.28;74.50
46007;BME280;31738;50.188;8.524;2023-05-23T02:41:39;98628.72;;;19.22;74.24
46007;BME280;31738;50.188;8.524;2023-05-23T02:44:05;98641.38;;;19.18;73.68
46007;BME280;31738;50.188;8.524;2023-05-23T02:46:31;98643.81;;;19.11;73.65
46007;BME280;31738;50.188;8.524;2023-05-23T02:48:56;98646.41;;;19.08;74.07
46007;BME280;31738;50.188;8.524;2023-05-23T02:51:22;98641.63;;;19.05;73.69
46007;BME280;31738;50.188;8.524;2023-05-23T02:53:47;98654.63;;;18.99;73.95
46007;BME280;31738;50.188;8.524;2023-05-23T02:56:13;98647.47;;;18.95;74.42
46007;BME280;31738;50.188;8.524;2023-05-23T02:58:40;98650.03;;;18.91;74.26
46007;BME280;31738;50.188;8.524;2023-05-23T03:01:06;98634.72;;;18.87;74.63
46007;BME280;31738;50.188;8.524;2023-05-23T03:03:34;98637.13;;;18.80;74.38
46007;BME280;31738;50.188;8.524;2023-05-23T03:06:03;98634.63;;;18.75;74.58
46007;BME280;31738;50.188;8.524;2023-05-23T03:08:35;98638.84;;;18.63;74.66
46007;BME280;31738;50.188;8.524;2023-05-23T03:11:00;98641.41;;;18.60;75.02
46007;BME280;31738;50.188;8.524;2023-05-23T03:13:27;98636.31;;;18.58;75.12
46007;BME280;31738;50.188;8.524;2023-05-23T03:15:52;98632.19;;;18.52;75.00
46007;BME280;31738;50.188;8.524;2023-05-23T03:18:18;98637.78;;;18.47;75.06
46007;BME280;31738;50.188;8.524;2023-05-23T03:20:43;98635.72;;;18.44;75.26
46007;BME280;31738;50.188;8.524;2023-05-23T03:23:09;98634.81;;;18.40;75.16
46007;BME280;31738;50.188;8.524;2023-05-23T03:25:34;98631.97;;;18.28;75.01
46007;BME280;31738;50.188;8.524;2023-05-23T03:28:00;98629.09;;;18.25;74.66
46007;BME280;31738;50.188;8.524;2023-05-23T03:30:26;98640.28;;;18.23;75.29
46007;BME280;31738;50.188;8.524;2023-05-23T03:32:51;98643.31;;;18.22;75.26
46007;BME280;31738;50.188;8.524;2023-05-23T03:35:18;98645.22;;;18.21;75.21
46007;BME280;31738;50.188;8.524;2023-05-23T03:37:43;98652.72;;;18.24;75.44
46007;BME280;31738;50.188;8.524;2023-05-23T03:40:09;98644.13;;;18.22;75.45
46007;BME280;31738;50.188;8.524;2023-05-23T03:42:35;98655.75;;;18.23;74.98
46007;BME280;31738;50.188;8.524;2023-05-23T03:45:01;98655.63;;;18.19;74.56
46007;BME280;31738;50.188;8.524;2023-05-23T03:47:26;98666.50;;;18.19;74.99
46007;BME280;31738;50.188;8.524;2023-05-23T03:49:54;98660.41;;;18.22;74.97
46007;BME280;31738;50.188;8.524;2023-05-23T03:52:19;98672.22;;;18.26;75.02
46007;BME280;31738;50.188;8.524;2023-05-23T03:54:45;98670.75;;;18.29;74.87
46007;BME280;31738;50.188;8.524;2023-05-23T03:57:11;98678.56;;;18.30;75.15
46007;BME280;31738;50.188;8.524;2023-05-23T03:59:36;98681.78;;;18.32;75.34
46007;BME280;31738;50.188;8.524;2023-05-23T04:02:05;98681.13;;;18.35;75.55
46007;BME280;31738;50.188;8.524;2023-05-23T04:04:31;98681.63;;;18.37;75.36
46007;BME280;31738;50.188;8.524;2023-05-23T04:06:58;98682.25;;;18.34;74.89
46007;BME280;31738;50.188;8.524;2023-05-23T04:09:24;98684.97;;;18.34;74.15
46007;BME280;31738;50.188;8.524;2023-05-23T04:11:50;98696.47;;;18.31;73.72
46007;BME280;31738;50.188;8.524;2023-05-23T04:14:17;98694.28;;;18.16;73.64
46007;BME280;31738;50.188;8.524;2023-05-23T04:16:45;98695.06;;;18.17;73.54
46007;BME280;31738;50.188;8.524;2023-05-23T04:19:12;98695.88;;;18.17;73.59
46007;BME280;31738;50.188;8.524;2023-05-23T04:21:38;98700.81;;;18.15;73.16
46007;BME280;31738;50.188;8.524;2023-05-23T04:24:07;98710.91;;;18.06;73.79
46007;BME280;31738;50.188;8.524;2023-05-23T04:26:33;98706.28;;;18.07;73.83
46007;BME280;31738;50.188;8.524;2023-05-23T04:29:02;98704.22;;;18.04;73.49
46007;BME280;31738;50.188;8.524;2023-05-23T04:31:29;98712.19;;;18.00;73.99
46007;BME280;31738;50.188;8.524;2023-05-23T04:33:55;98729.13;;;17.97;73.56
46007;BME280;31738;50.188;8.524;2023-05-23T04:36:22;98732.16;;;17.96;73.74
46007;BME280;31738;50.188;8.524;2023-05-23T04:38:51;98721.00;;;17.97;74.10
46007;BME280;31738;50.188;8.524;2023-05-23T04:41:17;98730.06;;;18.01;73.26
46007;BME280;31738;50.188;8.524;2023-05-23T04:43:56;98736.13;;;17.98;73.25
46007;BME280;31738;50.188;8.524;2023-05-23T04:46:40;98735.69;;;17.96;73.19
46007;BME280;31738;50.188;8.524;2023-05-23T04:49:29;98731.69;;;17.94;72.93
46007;BME280;31738;50.188;8.524;2023-05-23T04:51:54;98731.03;;;17.97;73.23
46007;BME280;31738;50.188;8.524;2023-05-23T04:54:26;98736.13;;;17.98;73.41
46007;BME280;31738;50.188;8.524;2023-05-23T04:56:52;98738.22;;;18.01;73.83
46007;BME280;31738;50.188;8.524;2023-05-23T04:59:19;98749.56;;;18.03;73.95
46007;BME280;31738;50.188;8.524;2023-05-23T05:01:45;98744.13;;;18.03;73.85
46007;BME280;31738;50.188;8.524;2023-05-23T05:04:11;98746.53;;;17.96;73.38
46007;BME280;31738;50.188;8.524;2023-05-23T05:06:39;98758.50;;;17.95;72.20
46007;BME280;31738;50.188;8.524;2023-05-23T05:09:05;98756.44;;;17.92;72.42
46007;BME280;31738;50.188;8.524;2023-05-23T05:11:31;98767.28;;;17.92;71.96
46007;BME280;31738;50.188;8.524;2023-05-23T05:13:57;98768.91;;;17.93;71.85
46007;BME280;31738;50.188;8.524;2023-05-23T05:16:23;98768.41;;;17.91;72.11
46007;BME280;31738;50.188;8.524;2023-05-23T05:18:49;98771.13;;;17.91;72.23
46007;BME280;31738;50.188;8.524;2023-05-23T05:21:18;98762.19;;;17.91;71.72
46007;BME280;31738;50.188;8.524;2023-05-23T05:23:43;98772.25;;;17.90;72.28
46007;BME280;31738;50.188;8.524;2023-05-23T05:26:09;98782.47;;;17.93;72.07
46007;BME280;31738;50.188;8.524;2023-05-23T05:28:34;98794.09;;;17.94;71.27
46007;BME280;31738;50.188;8.524;2023-05-23T05:31:00;98798.91;;;17.88;70.71
46007;BME280;31738;50.188;8.524;2023-05-23T05:33:31;98797.78;;;17.89;71.78
46007;BME280;31738;50.188;8.524;2023-05-23T05:36:11;98798.25;;;17.91;71.54
46007;BME280;31738;50.188;8.524;2023-05-23T05:38:37;98807.03;;;17.88;70.91
46007;BME280;31738;50.188;8.524;2023-05-23T05:41:02;98795.84;;;17.81;70.56
46007;BME280;31738;50.188;8.524;2023-05-23T05:43:33;98795.41;;;17.79;70.61
46007;BME280;31738;50.188;8.524;2023-05-23T05:45:58;98787.72;;;17.81;71.54
46007;BME280;31738;50.188;8.524;2023-05-23T05:48:24;98802.59;;;17.84;71.55
46007;BME280;31738;50.188;8.524;2023-05-23T05:50:51;98801.63;;;17.88;72.41
46007;BME280;31738;50.188;8.524;2023-05-23T05:53:16;98815.03;;;17.93;71.80
46007;BME280;31738;50.188;8.524;2023-05-23T05:55:42;98808.00;;;17.92;71.56
46007;BME280;31738;50.188;8.524;2023-05-23T05:58:08;98821.41;;;17.97;71.69
46007;BME280;31738;50.188;8.524;2023-05-23T06:00:51;98821.41;;;17.97;71.33
46007;BME280;31738;50.188;8.524;2023-05-23T06:03:19;98819.19;;;17.99;71.55
46007;BME280;31738;50.188;8.524;2023-05-23T06:05:51;98830.38;;;17.98;70.62
46007;BME280;31738;50.188;8.524;2023-05-23T06:08:17;98828.44;;;17.98;71.27
46007;BME280;31738;50.188;8.524;2023-05-23T06:10:42;98827.66;;;17.98;71.36
46007;BME280;31738;50.188;8.524;2023-05-23T06:13:08;98825.41;;;18.00;71.85
46007;BME280;31738;50.188;8.524;2023-05-23T06:15:35;98836.25;;;18.00;70.60
46007;BME280;31738;50.188;8.524;2023-05-23T06:18:00;98841.06;;;18.03;71.43
46007;BME280;31738;50.188;8.524;2023-05-23T06:20:28;98854.94;;;18.01;70.72
46007;BME280;31738;50.188;8.524;2023-05-23T06:22:54;98848.09;;;18.04;71.00
46007;BME280;31738;50.188;8.524;2023-05-23T06:25:19;98852.25;;;18.10;69.99
46007;BME280;31738;50.188;8.524;2023-05-23T06:27:46;98852.41;;;18.13;70.55
46007;BME280;31738;50.188;8.524;2023-05-23T06:30:12;98858.16;;;18.20;70.68
46007;BME280;31738;50.188;8.524;2023-05-23T06:32:39;98871.59;;;18.25;69.81
46007;BME280;31738;50.188;8.524;2023-05-23T06:35:05;98862.13;;;18.23;69.40
46007;BME280;31738;50.188;8.524;2023-05-23T06:37:32;98871.25;;;18.18;68.98
46007;BME280;31738;50.188;8.524;2023-05-23T06:39:58;98872.88;;;18.19;69.52
46007;BME280;31738;50.188;8.524;2023-05-23T06:42:24;98881.31;;;18.26;68.92
46007;BME280;31738;50.188;8.524;2023-05-23T06:45:15;98879.88;;;18.20;69.14
46007;BME280;31738;50.188;8.524;2023-05-23T06:47:42;98884.03;;;18.26;69.51
46007;BME280;31738;50.188;8.524;2023-05-23T06:50:12;98885.78;;;18.31;69.40
46007;BME280;31738;50.188;8.524;2023-05-23T06:52:38;98881.16;;;18.31;68.62
46007;BME280;31738;50.188;8.524;2023-05-23T06:55:04;98864.09;;;18.39;68.98
46007;BME280;31738;50.188;8.524;2023-05-23T06:57:30;98867.28;;;18.50;68.65
46007;BME280;31738;50.188;8.524;2023-05-23T06:59:56;98856.41;;;18.67;68.67
46007;BME280;31738;50.188;8.524;2023-05-23T07:02:21;98866.44;;;18.84;68.32
46007;BME280;31738;50.188;8.524;2023-05-23T07:04:47;98846.88;;;18.99;69.08
46007;BME280;31738;50.188;8.524;2023-05-23T07:07:18;98860.84;;;19.18;69.61
46007;BME280;31738;50.188;8.524;2023-05-23T07:09:44;98874.00;;;19.16;67.39
46007;BME280;31738;50.188;8.524;2023-05-23T07:12:15;98868.84;;;19.23;66.92
46007;BME280;31738;50.188;8.524;2023-05-23T07:14:42;98890.47;;;19.28;65.69
46007;BME280;31738;50.188;8.524;2023-05-23T07:17:09;98900.81;;;19.26;65.47
46007;BME280;31738;50.188;8.524;2023-05-23T07:19:34;98894.75;;;19.29;67.24
46007;BME280;31738;50.188;8.524;2023-05-23T07:22:00;98896.66;;;19.37;66.94
46007;BME280;31738;50.188;8.524;2023-05-23T07:24:26;98913.13;;;19.40;66.04
46007;BME280;31738;50.188;8.524;2023-05-23T07:26:54;98913.78;;;19.37;66.23
46007;BME280;31738;50.188;8.524;2023-05-23T07:29:20;98918.91;;;19.30;65.40
46007;BME280;31738;50.188;8.524;2023-05-23T07:31:47;98925.31;;;19.34;64.98
46007;BME280;31738;50.188;8.524;2023-05-23T07:34:13;98925.00;;;19.36;66.00
46007;BME280;31738;50.188;8.524;2023-05-23T07:36:48;98917.69;;;19.57;66.52
46007;BME280;31738;50.188;8.524;2023-05-23T07:39:14;98919.78;;;19.89;66.15
46007;BME280;31738;50.188;8.524;2023-05-23T07:41:46;98921.91;;;20.04;65.06
46007;BME280;31738;50.188;8.524;2023-05-23T07:44:11;98932.56;;;19.97;64.80
46007;BME280;31738;50.188;8.524;2023-05-23T07:46:37;98939.16;;;19.87;64.87
46007;BME280;31738;50.188;8.524;2023-05-23T07:49:03;98941.00;;;19.75;65.17
46007;BME280;31738;50.188;8.524;2023-05-23T07:51:28;98938.16;;;19.63;65.03
46007;BME280;31738;50.188;8.524;2023-05-23T07:53:54;98948.28;;;19.54;65.18
46007;BME280;31738;50.188;8.524;2023-05-23T07:56:21;98926.69;;;19.57;65.74
46007;BME280;31738;50.188;8.524;2023-05-23T07:58:47;98927.69;;;19.82;66.25
46007;BME280;31738;50.188;8.524;2023-05-23T08:01:13;98932.63;;;20.09;64.88
46007;BME280;31738;50.188;8.524;2023-05-23T08:03:57;98936.84;;;20.27;65.31
46007;BME280;31738;50.188;8.524;2023-05-23T08:06:28;98928.56;;;20.44;66.01
46007;BME280;31738;50.188;8.524;2023-05-23T08:08:59;98939.78;;;20.63;65.45
46007;BME280;31738;50.188;8.524;2023-05-23T08:11:26;98950.53;;;20.80;64.63
46007;BME280;31738;50.188;8.524;2023-05-23T08:13:53;98960.03;;;20.74;63.18
46007;BME280;31738;50.188;8.524;2023-05-23T08:16:37;98955.28;;;20.51;61.50
46007;BME280;31738;50.188;8.524;2023-05-23T08:19:05;98968.63;;;20.23;61.58
46007;BME280;31738;50.188;8.524;2023-05-23T08:21:31;98983.00;;;20.32;61.12
46007;BME280;31738;50.188;8.524;2023-05-23T08:23:58;98981.81;;;20.42;61.03
46007;BME280;31738;50.188;8.524;2023-05-23T08:26:24;98963.81;;;20.49;61.46
46007;BME280;31738;50.188;8.524;2023-05-23T08:28:51;98971.31;;;20.52;60.56
46007;BME280;31738;50.188;8.524;2023-05-23T08:31:17;98982.28;;;20.64;60.71
46007;BME280;31738;50.188;8.524;2023-05-23T08:33:43;98982.00;;;20.78;61.15
46007;BME280;31738;50.188;8.524;2023-05-23T08:36:09;98984.53;;;20.83;60.31
46007;BME280;31738;50.188;8.524;2023-05-23T08:38:34;98974.28;;;20.80;60.83
46007;BME280;31738;50.188;8.524;2023-05-23T08:41:22;98982.38;;;20.88;59.71
46007;BME280;31738;50.188;8.524;2023-05-23T08:43:50;98985.69;;;20.82;59.74
46007;BME280;31738;50.188;8.524;2023-05-23T08:46:24;98993.38;;;20.59;60.53
46007;BME280;31738;50.188;8.524;2023-05-23T08:48:53;98996.53;;;20.41;60.32
46007;BME280;31738;50.188;8.524;2023-05-23T08:51:22;99002.91;;;20.24;60.40
46007;BME280;31738;50.188;8.524;2023-05-23T08:53:50;98999.13;;;20.08;61.40
46007;BME280;31738;50.188;8.524;2023-05-23T08:56:18;99005.44;;;20.00;61.74
46007;BME280;31738;50.188;8.524;2023-05-23T08:58:46;98993.91;;;19.94;63.58
46007;BME280;31738;50.188;8.524;2023-05-23T09:01:13;99004.84;;;19.86;62.94
46007;BME280;31738;50.188;8.524;2023-05-23T09:03:40;99004.75;;;19.74;62.06
46007;BME280;31738;50.188;8.524;2023-05-23T09:06:34;98999.06;;;19.50;62.68
46007;BME280;31738;50.188;8.524;2023-05-23T09:09:00;99007.34;;;19.53;63.24
46007;BME280;31738;50.188;8.524;2023-05-23T09:11:26;99002.19;;;19.69;64.22
46007;BME280;31738;50.188;8.524;2023-05-23T09:13:52;98997.47;;;19.86;64.21
46007;BME280;31738;50.188;8.524;2023-05-23T09:16:21;98996.44;;;19.99;62.33
46007;BME280;31738;50.188;8.524;2023-05-23T09:18:50;99000.72;;;20.09;62.15
46007;BME280;31738;50.188;8.524;2023-05-23T09:21:18;98999.72;;;20.22;61.60
46007;BME280;31738;50.188;8.524;2023-05-23T09:25:25;98998.94;;;20.42;60.79
46007;BME280;31738;50.188;8.524;2023-05-23T09:27:53;98993.38;;;20.59;60.81
46007;BME280;31738;50.188;8.524;2023-05-23T09:31:25;98995.31;;;21.00;60.97
46007;BME280;31738;50.188;8.524;2023-05-23T09:33:52;99008.00;;;21.16;59.43
46007;BME280;31738;50.188;8.524;2023-05-23T09:36:18;99010.06;;;21.19;57.42
46007;BME280;31738;50.188;8.524;2023-05-23T09:38:47;99014.88;;;21.34;56.26
46007;BME280;31738;50.188;8.524;2023-05-23T09:41:13;99021.44;;;21.21;56.78
46007;BME280;31738;50.188;8.524;2023-05-23T09:43:52;99026.22;;;21.24;57.49
46007;BME280;31738;50.188;8.524;2023-05-23T09:46:21;99030.50;;;21.13;56.49
46007;BME280;31738;50.188;8.524;2023-05-23T09:48:50;99034.47;;;20.75;57.21
46007;BME280;31738;50.188;8.524;2023-05-23T09:51:22;99037.66;;;20.56;57.16
46007;BME280;31738;50.188;8.524;2023-05-23T09:53:55;99046.16;;;20.55;58.23
46007;BME280;31738;50.188;8.524;2023-05-23T09:56:22;99031.28;;;20.52;59.26
46007;BME280;31738;50.188;8.524;2023-05-23T09:58:52;99041.22;;;20.48;58.71
46007;BME280;31738;50.188;8.524;2023-05-23T10:01:18;99046.69;;;20.48;58.56
46007;BME280;31738;50.188;8.524;2023-05-23T10:03:52;99046.75;;;20.40;58.37
46007;BME280;31738;50.188;8.524;2023-05-23T10:06:26;99042.94;;;20.32;59.68
46007;BME280;31738;50.188;8.524;2023-05-23T10:09:04;99045.03;;;20.26;59.55
46007;BME280;31738;50.188;8.524;2023-05-23T10:14:00;99050.63;;;20.30;59.78
46007;BME280;31738;50.188;8.524;2023-05-23T10:16:33;99046.41;;;20.41;59.51
46007;BME280;31738;50.188;8.524;2023-05-23T10:19:18;99044.00;;;20.40;59.67
46007;BME280;31738;50.188;8.524;2023-05-23T10:22:00;99049.97;;;20.33;59.38
46007;BME280;31738;50.188;8.524;2023-05-23T10:24:31;99049.28;;;20.15;59.90
46007;BME280;31738;50.188;8.524;2023-05-23T10:26:58;99050.56;;;20.09;59.79
46007;BME280;31738;50.188;8.524;2023-05-23T10:29:24;99050.69;;;20.21;60.05
46007;BME280;31738;50.188;8.524;2023-05-23T10:31:51;99043.44;;;20.25;60.54
46007;BME280;31738;50.188;8.524;2023-05-23T10:34:22;99035.44;;;20.29;62.06
46007;BME280;31738;50.188;8.524;2023-05-23T10:40:26;99046.56;;;20.07;62.81
46007;BME280;31738;50.188;8.524;2023-05-23T10:43:04;99052.81;;;19.99;61.84
46007;BME280;31738;50.188;8.524;2023-05-23T10:45:39;99052.88;;;19.90;62.52
46007;BME280;31738;50.188;8.524;2023-05-23T10:48:22;99048.94;;;19.71;62.52
46007;BME280;31738;50.188;8.524;2023-05-23T10:53:30;99058.56;;;19.60;62.30
46007;BME280;31738;50.188;8.524;2023-05-23T10:55:56;99055.25;;;19.54;62.68
46007;BME280;31738;50.188;8.524;2023-05-23T10:58:22;99050.91;;;19.62;63.83
46007;BME280;31738;50.188;8.524;2023-05-23T11:00:56;99049.56;;;19.76;63.21
46007;BME280;31738;50.188;8.524;2023-05-23T11:06:03;99034.78;;;19.86;62.70
46007;BME280;31738;50.188;8.524;2023-05-23T11:08:39;99029.28;;;20.03;62.87
46007;BME280;31738;50.188;8.524;2023-05-23T11:11:07;99031.94;;;20.11;62.52
46007;BME280;31738;50.188;8.524;2023-05-23T11:18:48;99027.75;;;20.22;61.91
46007;BME280;31738;50.188;8.524;2023-05-23T11:21:14;99038.50;;;20.19;61.21
46007;BME280;31738;50.188;8.524;2023-05-23T11:23:40;99044.59;;;20.24;61.59
46007;BME280;31738;50.188;8.524;2023-05-23T11:26:29;99034.28;;;20.30;60.19
46007;BME280;31738;50.188;8.524;2023-05-23T11:28:56;99036.84;;;20.35;61.58
46007;BME280;31738;50.188;8.524;2023-05-23T11:31:23;99034.59;;;20.58;61.12
46007;BME280;31738;50.188;8.524;2023-05-23T11:33:52;99033.00;;;20.77;61.52
46007;BME280;31738;50.188;8.524;2023-05-23T11:36:20;99028.84;;;21.00;61.70
46007;BME280;31738;50.188;8.524;2023-05-23T11:38:46;99036.53;;;21.19;60.42
46007;BME280;31738;50.188;8.524;2023-05-23T11:41:11;99058.31;;;21.27;58.52
46007;BME280;31738;50.188;8.524;2023-05-23T11:43:37;99060.03;;;21.11;57.98
46007;BME280;31738;50.188;8.524;2023-05-23T11:46:13;99069.16;;;21.15;57.50
46007;BME280;31738;50.188;8.524;2023-05-23T11:48:43;99073.97;;;21.18;56.81
46007;BME280;31738;50.188;8.524;2023-05-23T11:51:09;99079.22;;;21.03;56.44
46007;BME280;31738;50.188;8.524;2023-05-23T11:53:35;99088.53;;;21.02;56.96
46007;BME280;31738;50.188;8.524;2023-05-23T11:56:01;99092.19;;;21.06;56.01
46007;BME280;31738;50.188;8.524;2023-05-23T11:58:33;99089.84;;;21.16;55.86
46007;BME280;31738;50.188;8.524;2023-05-23T12:01:03;99096.09;;;21.37;55.54
46007;BME280;31738;50.188;8.524;2023-05-23T12:03:30;99110.34;;;21.22;54.90
46007;BME280;31738;50.188;8.524;2023-05-23T12:05:58;99114.06;;;20.97;56.06
46007;BME280;31738;50.188;8.524;2023-05-23T12:08:24;99110.38;;;20.93;56.79
46007;BME280;31738;50.188;8.524;2023-05-23T12:10:57;99102.78;;;21.07;57.86
46007;BME280;31738;50.188;8.524;2023-05-23T12:13:24;99105.41;;;21.36;57.29
46007;BME280;31738;50.188;8.524;2023-05-23T12:15:58;99109.78;;;21.49;56.10
46007;BME280;31738;50.188;8.524;2023-05-23T12:18:27;99112.50;;;21.49;54.60
46007;BME280;31738;50.188;8.524;2023-05-23T12:20:53;99100.22;;;21.43;56.41
46007;BME280;31738;50.188;8.524;2023-05-23T12:23:20;99111.13;;;21.43;56.63
46007;BME280;31738;50.188;8.524;2023-05-23T12:25:51;99121.28;;;21.22;56.14
46007;BME280;31738;50.188;8.524;2023-05-23T12:28:16;99124.31;;;21.00;56.04
46007;BME280;31738;50.188;8.524;2023-05-23T12:30:43;99125.06;;;20.80;56.35
46007;BME280;31738;50.188;8.524;2023-05-23T12:33:08;99126.78;;;20.64;57.33
46007;BME280;31738;50.188;8.524;2023-05-23T12:35:34;99130.41;;;20.39;57.59
46007;BME280;31738;50.188;8.524;2023-05-23T12:38:00;99125.16;;;20.34;57.81
46007;BME280;31738;50.188;8.524;2023-05-23T12:40:26;99122.44;;;20.34;58.23
46007;BME280;31738;50.188;8.524;2023-05-23T12:42:53;99123.09;;;20.31;58.60
46007;BME280;31738;50.188;8.524;2023-05-23T12:45:23;99113.78;;;20.32;59.47
46007;BME280;31738;50.188;8.524;2023-05-23T12:47:54;99113.28;;;20.39;59.01
46007;BME280;31738;50.188;8.524;2023-05-23T12:50:20;99113.06;;;20.52;58.14
46007;BME280;31738;50.188;8.524;2023-05-23T12:52:46;99122.72;;;20.41;57.85
46007;BME280;31738;50.188;8.524;2023-05-23T12:55:12;99123.09;;;20.31;57.85
46007;BME280;31738;50.188;8.524;2023-05-23T12:57:37;99122.81;;;20.07;57.84
46007;BME280;31738;50.188;8.524;2023-05-23T13:00:03;99130.22;;;19.98;58.59
46007;BME280;31738;50.188;8.524;2023-05-23T13:02:31;99132.66;;;19.91;58.33
46007;BME280;31738;50.188;8.524;2023-05-23T13:04:56;99113.88;;;19.98;58.50
46007;BME280;31738;50.188;8.524;2023-05-23T13:07:22;99104.34;;;20.29;58.48
46007;BME280;31738;50.188;8.524;2023-05-23T13:09:48;99117.19;;;20.58;58.09
46007;BME280;31738;50.188;8.524;2023-05-23T13:12:14;99117.84;;;20.55;57.39
46007;BME280;31738;50.188;8.524;2023-05-23T13:14:40;99121.72;;;20.54;57.48
46007;BME280;31738;50.188;8.524;2023-05-23T13:17:06;99128.69;;;20.34;57.63
46007;BME280;31738;50.188;8.524;2023-05-23T13:19:32;99132.75;;;20.20;57.67
46007;BME280;31738;50.188;8.524;2023-05-23T13:21:57;99132.59;;;20.16;57.37
46007;BME280;31738;50.188;8.524;2023-05-23T13:24:22;99125.22;;;20.08;57.62
46007;BME280;31738;50.188;8.524;2023-05-23T13:26:48;99126.34;;;20.16;58.42